Falls Mills, VA (24613)

4:58 AM EST on November 28, 2014 (GMT -0500)
Parkview Heights | Change Station
CLOSE
Current Station
Personal Weather Station
Location: Bluefield, VA
Elevation: 2402 ft
Nearby Weather Stations
Active Advisory: Special Statement Active Notice: Local Storm Report

Elev 2402 ft 37.24 °N, 81.28 °W | Updated 0 second ago

Overcast
Overcast
24.0 °F
Feels Like 24 °F
N
3.0
Wind Variable Wind from WNW
Gusts 6.0 mph

Today
High -- | Low -- °F
--% Chance of Precip.
Yesterday
High -- | Low -- °F
Precip. -- in
7:17 AM 5:08 PM
Waxing Crescent, 38% visible
Pressure 30.30 in
Visibility 10.0 miles
Clouds Overcast 3300 ft
Windchill 24 °F
Dew Point 19 °F
Humidity 82%
Rainfall 0.00 in
Snow Depth Not available.
UV 0.0 out of 12
Pollen .10 out of 12
Air Quality Not available.
Flu Activity Not available.
METAR KBLF 280952Z AUTO 31008KT 10SM OVC033 M04/M09 A3023 RMK AO2 SLP259 T10441094 $

More Conditions Fewer Conditions

Pressure 30.30 in
Visibility 10.0 miles
Clouds Overcast 3300 ft
Windchill 24 °F
Dew Point 19 °F
Humidity 82%
Rainfall 0.00 in
Snow Depth Not available.
UV 0.0 out of 12
Pollen .10 out of 12
Air Quality Not available.
Flu Activity Not available.
METAR KBLF 280952Z AUTO 31008KT 10SM OVC033 M04/M09 A3023 RMK AO2 SLP259 T10441094 $

More Conditions Fewer Conditions

10-Day Weather Forecast

Almanac

Astronomy

Nov. 28, 2014 Rise Set
Actual Time
Civil Twilight
Nautical Twilight
Astronomical Twilight
Moon
Length of Visible Light
Length of Day
Tomorrow will be .
, % of the Moon is Illuminated

Today's Extremes

State Highs State Lows

Community

WunderPhotos

Upload Photos

1,774,190 photos uploaded!

WunderBlogs® & News

Nearby

Air Quality

  Air Quality AQ Index Pollutant
Not available.

Snow Depth

Station Depth Elevation

Earthquake Activity

City Distance Mag. Time & Date
Minimum magnitude displayed is 2.5.

Coastal Water Temperatures

Place Temperature

Nearby Weather Stations